Погода Красюковскаяна 2 недели

Ростовская область, Россия

15 - 28 июля
  • 15июля
    Сегодня
    +24°
    +39°
    Ясно и безоблачно
    ВремяПогодаТемператураВлажностьДавлениеВетер, м/сВероятность осадков
    00:00Ясно и безоблачно+24°C29 %756 мм3.2 м/с2 %
    03:00Ясно и безоблачно+22°C30 %756 мм2.2 м/с2 %
    06:00Ясно и безоблачно+22°C27 %756 мм2.9 м/с2 %
    09:00Ясно и безоблачно+31°C21 %756 мм3.4 м/с2 %
    12:00Ясно и безоблачно+35°C24 %755 мм4.0 м/с2 %
    15:00Ясно и безоблачно+37°C22 %754 мм4.2 м/с2 %
    18:00Практически безоблачно+37°C27 %754 мм6.3 м/с12 %
    21:00Ясно и безоблачно+32°C41 %755 мм4.9 м/с2 %
  • 16июля
    Вторник
    +24°
    +39°
    Облачно с прояснениями
    ВремяПогодаТемператураВлажностьДавлениеВетер, м/сВероятность осадков
    00:00Ясно и безоблачно+28°C53 %755 мм4.0 м/с2 %
    03:00Ясно и безоблачно+26°C58 %755 мм3.4 м/с2 %
    06:00Ясно и безоблачно+25°C49 %755 мм3.2 м/с2 %
    09:00Ясно и безоблачно+33°C27 %756 мм3.1 м/с2 %
    12:00Ясно и безоблачно+37°C21 %755 мм3.1 м/с2 %
    15:00Облачно с прояснениями+37°C20 %754 мм3.6 м/с2 %
    18:00Облачно с прояснениями+38°C19 %754 мм3.0 м/с2 %
    21:00Ясно и безоблачно+32°C26 %755 мм3.1 м/с2 %
  • 17июля
    Среда
    +23°
    +39°
    Практически безоблачно
    ВремяПогодаТемператураВлажностьДавлениеВетер, м/сВероятность осадков
    00:00Ясно и безоблачно+29°C32 %755 мм3.2 м/с2 %
    03:00Ясно и безоблачно+26°C37 %755 мм3.1 м/с2 %
    06:00Ясно и безоблачно+26°C39 %756 мм2.9 м/с2 %
    09:00Практически безоблачно+33°C25 %757 мм2.6 м/с2 %
    12:00Практически безоблачно+38°C20 %756 мм3.4 м/с2 %
    15:00Практически безоблачно+38°C19 %756 мм2.7 м/с2 %
    18:00Практически безоблачно+38°C21 %755 мм3.3 м/с2 %
    21:00Ясно и безоблачно+32°C27 %756 мм2.8 м/с2 %
  • 18июля
    Четверг
    +25°
    +39°
    Практически безоблачно
    ВремяПогодаТемператураВлажностьДавлениеВетер, м/сВероятность осадков
    00:00Ясно и безоблачно+28°C33 %756 мм2.0 м/с2 %
    03:00Ясно и безоблачно+25°C38 %756 мм2.2 м/с2 %
    06:00Ясно и безоблачно+24°C42 %756 мм2.9 м/с2 %
    09:00Ясно и безоблачно+33°C27 %756 мм1.1 м/с2 %
    12:00Ясно и безоблачно+37°C22 %756 мм2.3 м/с2 %
    15:00Практически безоблачно+39°C20 %754 мм1.9 м/с2 %
    18:00Практически безоблачно+38°C19 %754 мм3.0 м/с2 %
    21:00Ясно и безоблачно+33°C25 %754 мм2.4 м/с2 %
  • 19июля
    Пятница
    +22°
    +40°
    Облачно с прояснениями
    ВремяПогодаТемператураВлажностьДавлениеВетер, м/сВероятность осадков
    00:00Ясно и безоблачно+28°C30 %754 мм2.2 м/с2 %
    03:00Ясно и безоблачно+26°C33 %753 мм2.4 м/с2 %
    06:00Ясно и безоблачно+26°C35 %753 мм1.6 м/с2 %
    09:00Практически безоблачно+33°C27 %753 мм0.8 м/с2 %
    12:00Облачно с прояснениями+40°C20 %752 мм1.9 м/с16 %
    15:00Облачно с прояснениями+36°C29 %752 мм5.1 м/с27 %
    18:00Облачно с прояснениями+34°C34 %752 мм4.6 м/с13 %
    21:00Небольшая облачность+31°C39 %752 мм3.0 м/с2 %
Мы используем cookies
Соглашаюсь